createdAt,value
2023-02-11T00:00:07.361Z,71.37
2023-02-11T00:02:58.484Z,71.15
2023-02-11T00:05:29.926Z,71.14
2023-02-11T00:07:58.538Z,71.22
2023-02-11T00:10:27.638Z,70.94
2023-02-11T00:12:56.569Z,70.49
2023-02-11T00:15:25.476Z,70.55
2023-02-11T00:17:59.179Z,70.44
2023-02-11T00:20:27.799Z,70.56
2023-02-11T00:22:56.515Z,70.62
2023-02-11T00:25:28.232Z,70.43
2023-02-11T00:27:56.952Z,69.90
2023-02-11T00:30:25.539Z,69.77
2023-02-11T00:32:58.115Z,70.19
2023-02-11T00:35:27.225Z,70.07
2023-02-11T00:37:59.336Z,70.10
2023-02-11T00:40:27.973Z,70.70
2023-02-11T00:43:04.169Z,70.75
2023-02-11T00:45:32.865Z,70.51
2023-02-11T00:48:03.900Z,70.88
2023-02-11T00:50:35.770Z,70.93
2023-02-11T00:53:04.460Z,70.97
2023-02-11T00:55:33.208Z,70.67
2023-02-11T00:58:02.005Z,70.13
2023-02-11T01:00:30.632Z,70.48
2023-02-11T01:02:59.288Z,70.54
2023-02-11T01:05:31.411Z,70.68
2023-02-11T01:08:03.198Z,70.14
2023-02-11T01:10:35.067Z,69.74
2023-02-11T01:13:04.667Z,69.74
2023-02-11T01:15:35.877Z,69.75
2023-02-11T01:18:08.144Z,69.58
2023-02-11T01:20:41.973Z,69.73
2023-02-11T01:23:10.911Z,70.12
2023-02-11T01:25:39.575Z,70.65
2023-02-11T01:28:20.242Z,69.93
2023-02-11T01:30:53.425Z,70.80
2023-02-11T01:33:22.495Z,71.54
2023-02-11T01:35:54.492Z,71.44
2023-02-11T01:38:29.354Z,71.23
2023-02-11T01:41:04.840Z,71.37
2023-02-11T01:43:36.255Z,71.37
2023-02-11T01:46:37.224Z,71.12
2023-02-11T01:49:13.070Z,71.04
2023-02-11T01:52:09.013Z,70.98
2023-02-11T01:55:01.263Z,71.30
2023-02-11T01:57:38.301Z,71.24
2023-02-11T02:00:24.389Z,71.30
2023-02-11T02:03:13.680Z,70.88
2023-02-11T02:09:07.100Z,70.34
2023-02-11T02:11:36.631Z,70.68
2023-02-11T02:14:08.883Z,71.01
2023-02-11T02:16:39.989Z,70.80
2023-02-11T02:19:46.513Z,70.77
2023-02-11T02:23:07.863Z,71.09
2023-02-11T02:25:57.465Z,70.91
2023-02-11T02:28:44.335Z,70.91
2023-02-11T02:31:15.808Z,71.21
2023-02-11T02:33:58.136Z,71.28
2023-02-11T02:36:44.422Z,71.13
2023-02-11T02:39:25.010Z,70.80
2023-02-11T02:42:00.025Z,70.72
2023-02-11T02:44:32.302Z,70.43
2023-02-11T02:47:03.366Z,70.15
2023-02-11T02:49:31.982Z,70.42
2023-02-11T02:52:18.936Z,70.63
2023-02-11T02:55:03.107Z,70.41
2023-02-11T02:57:42.538Z,70.35
2023-02-11T03:00:15.142Z,70.25
2023-02-11T03:03:15.663Z,70.32
2023-02-11T03:05:53.464Z,70.32
2023-02-11T03:08:38.420Z,70.18
2023-02-11T03:11:09.767Z,70.20
2023-02-11T03:13:41.037Z,70.25
2023-02-11T03:16:16.558Z,69.77
2023-02-11T03:18:51.084Z,69.86
2023-02-11T03:21:21.361Z,69.55
2023-02-11T03:24:01.046Z,69.97
2023-02-11T03:26:32.129Z,69.74
2023-02-11T03:29:26.066Z,69.78
2023-02-11T03:32:12.434Z,69.83
2023-02-11T03:34:49.868Z,70.13
2023-02-11T03:37:28.060Z,70.34
2023-02-11T03:40:10.404Z,70.62
2023-02-11T03:42:45.756Z,70.66
2023-02-11T03:45:24.562Z,70.87
2023-02-11T03:48:02.341Z,70.51
2023-02-11T03:50:33.982Z,70.94
2023-02-11T03:53:03.904Z,71.17
2023-02-11T03:55:40.278Z,70.71
2023-02-11T03:58:09.645Z,70.39
2023-02-11T04:00:41.245Z,70.60
2023-02-11T04:03:15.130Z,70.65
2023-02-11T04:05:43.749Z,70.77
2023-02-11T04:08:19.517Z,71.56
2023-02-11T04:10:48.094Z,71.89
2023-02-11T04:13:19.563Z,71.45
2023-02-11T04:15:50.998Z,71.09
2023-02-11T04:18:26.602Z,71.15
2023-02-11T04:20:55.175Z,70.75
2023-02-11T04:23:27.214Z,70.89
2023-02-11T04:25:56.113Z,71.36
2023-02-11T04:28:29.655Z,70.92
2023-02-11T04:30:59.168Z,71.62
2023-02-11T04:33:28.051Z,71.91
2023-02-11T04:35:59.773Z,71.30
2023-02-11T04:38:31.443Z,71.59
2023-02-11T04:41:00.729Z,71.53
2023-02-11T04:43:32.372Z,71.60
2023-02-11T04:46:00.998Z,72.46
2023-02-11T04:48:29.679Z,72.08
2023-02-11T04:50:58.536Z,71.54
2023-02-11T04:53:27.229Z,72.40
2023-02-11T04:55:55.851Z,72.39
2023-02-11T04:58:24.654Z,72.16
2023-02-11T05:00:55.889Z,72.04
2023-02-11T05:03:26.029Z,72.25
2023-02-11T05:05:55.570Z,72.56
2023-02-11T05:08:26.488Z,72.59
2023-02-11T05:10:55.060Z,72.45
2023-02-11T05:13:23.654Z,72.92
2023-02-11T05:15:52.464Z,72.83
2023-02-11T05:18:22.311Z,73.02
2023-02-11T05:20:50.865Z,73.63
2023-02-11T05:23:21.957Z,73.59
2023-02-11T05:25:50.768Z,73.53
2023-02-11T05:28:27.269Z,73.71
2023-02-11T05:30:58.574Z,74.12
2023-02-11T05:33:27.224Z,74.42
2023-02-11T05:36:04.524Z,74.78
2023-02-11T05:38:34.097Z,74.96
2023-02-11T05:41:07.804Z,74.60
2023-02-11T05:43:36.781Z,74.71
2023-02-11T05:46:07.241Z,74.06
2023-02-11T05:48:36.361Z,73.31
2023-02-11T05:51:07.829Z,73.68
2023-02-11T05:53:39.094Z,74.07
2023-02-11T05:56:07.998Z,73.54
2023-02-11T05:58:37.211Z,72.94
2023-02-11T06:01:06.361Z,72.97
2023-02-11T06:03:37.049Z,73.01
2023-02-11T06:06:06.171Z,73.22
2023-02-11T06:08:37.570Z,73.00
2023-02-11T06:11:08.024Z,72.84
2023-02-11T06:13:37.190Z,73.04
2023-02-11T06:16:05.904Z,73.01
2023-02-11T06:18:35.291Z,73.53
2023-02-11T06:21:08.647Z,73.65
2023-02-11T06:23:39.338Z,73.50
2023-02-11T06:26:16.146Z,73.26
2023-02-11T06:28:44.920Z,72.99
2023-02-11T06:31:15.280Z,72.66
2023-02-11T06:33:46.815Z,72.13
2023-02-11T06:36:36.837Z,71.85
2023-02-11T06:39:12.422Z,71.55
2023-02-11T06:41:43.311Z,71.65
2023-02-11T06:44:12.393Z,71.28
2023-02-11T06:46:41.799Z,70.61
2023-02-11T06:49:10.596Z,70.49
2023-02-11T06:51:40.738Z,70.53
2023-02-11T06:54:11.717Z,70.71
2023-02-11T06:56:41.769Z,70.52
2023-02-11T06:59:16.557Z,70.42
2023-02-11T07:01:46.002Z,70.59
2023-02-11T07:04:15.658Z,70.81
2023-02-11T07:06:45.532Z,70.79
2023-02-11T07:09:13.936Z,71.13
2023-02-11T07:11:43.205Z,71.01
2023-02-11T07:14:13.635Z,70.48
2023-02-11T07:16:42.429Z,70.06
2023-02-11T07:19:11.121Z,69.87
2023-02-11T07:21:40.889Z,69.24
2023-02-11T07:24:11.358Z,69.23
2023-02-11T07:26:42.204Z,68.31
2023-02-11T07:29:10.736Z,68.71
2023-02-11T07:31:39.361Z,67.94
2023-02-11T07:34:07.850Z,67.73
2023-02-11T07:36:38.383Z,67.33
2023-02-11T07:39:07.498Z,65.97
2023-02-11T07:41:37.876Z,65.43
2023-02-11T07:44:07.707Z,63.42
2023-02-11T07:46:37.833Z,63.74
2023-02-11T07:49:07.105Z,62.70
2023-02-11T07:51:37.142Z,62.23
2023-02-11T07:54:08.248Z,61.28
2023-02-11T07:56:39.460Z,61.44
2023-02-11T07:59:08.567Z,62.19
2023-02-11T08:01:38.498Z,62.66
2023-02-11T08:04:06.998Z,63.02
2023-02-11T08:06:40.232Z,63.47
2023-02-11T08:09:13.400Z,63.81
2023-02-11T08:11:41.885Z,63.64
2023-02-11T08:14:11.443Z,63.34
2023-02-11T08:16:40.498Z,63.52
2023-02-11T08:19:13.471Z,64.23
2023-02-11T08:21:43.105Z,64.22
2023-02-11T08:24:12.462Z,64.69
2023-02-11T08:26:42.835Z,63.08
2023-02-11T08:29:17.144Z,63.49
2023-02-11T08:31:51.114Z,62.38
2023-02-11T08:34:22.898Z,61.90
2023-02-11T08:36:51.424Z,61.90
2023-02-11T08:39:22.606Z,62.04
2023-02-11T08:41:54.467Z,60.23
2023-02-11T08:44:27.482Z,61.45
2023-02-11T08:46:56.920Z,59.16
2023-02-11T08:49:28.056Z,60.24
2023-02-11T08:52:03.931Z,59.43
2023-02-11T08:54:38.163Z,57.66
2023-02-11T08:57:12.353Z,55.36
2023-02-11T08:59:40.885Z,56.34
2023-02-11T09:02:14.263Z,56.44
2023-02-11T09:04:42.930Z,53.04
2023-02-11T09:07:15.214Z,52.65
2023-02-11T09:09:43.893Z,52.96
2023-02-11T09:12:18.306Z,55.43
2023-02-11T09:14:49.666Z,57.80
2023-02-11T09:17:23.975Z,58.12
2023-02-11T09:20:00.228Z,57.26
2023-02-11T09:22:31.283Z,55.51
2023-02-11T09:25:03.141Z,55.86
2023-02-11T09:27:31.715Z,59.36
2023-02-11T09:30:00.316Z,58.31
2023-02-11T09:32:29.111Z,57.18
2023-02-11T09:35:00.525Z,56.53
2023-02-11T09:37:29.062Z,57.10
2023-02-11T09:40:00.592Z,57.20
2023-02-11T09:42:47.263Z,57.26
2023-02-11T09:45:20.792Z,57.88
2023-02-11T09:48:01.043Z,58.40
2023-02-11T09:50:36.204Z,58.99
2023-02-11T09:53:23.928Z,58.27
2023-02-11T09:55:59.897Z,58.40
2023-02-11T09:58:39.336Z,58.27
2023-02-11T10:01:30.521Z,58.28
2023-02-11T10:07:56.748Z,58.47
2023-02-11T10:10:47.900Z,58.62
2023-02-11T10:13:33.792Z,58.93
2023-02-11T10:16:26.648Z,58.59
2023-02-11T10:19:08.887Z,58.50
2023-02-11T10:22:19.782Z,58.53
2023-02-11T10:25:00.555Z,58.36
2023-02-11T10:27:36.673Z,58.21
2023-02-11T10:30:31.381Z,58.31
2023-02-11T10:33:24.445Z,58.81
2023-02-11T10:35:56.351Z,58.89
2023-02-11T10:38:33.268Z,58.77
2023-02-11T10:41:04.582Z,59.01
2023-02-11T10:43:41.678Z,59.00
2023-02-11T10:46:36.428Z,58.40
2023-02-11T10:49:07.614Z,58.28
2023-02-11T10:51:37.917Z,57.44
2023-02-11T10:54:08.464Z,57.36
2023-02-11T10:56:40.985Z,57.58
2023-02-11T10:59:29.808Z,58.18
2023-02-11T11:02:20.696Z,58.15
2023-02-11T11:04:50.608Z,57.92
2023-02-11T11:07:25.376Z,57.43
2023-02-11T11:10:00.401Z,57.31
2023-02-11T11:12:42.228Z,57.49
2023-02-11T11:15:14.444Z,57.23
2023-02-11T11:18:22.162Z,56.87
2023-02-11T11:24:29.704Z,56.64
2023-02-11T11:27:08.537Z,55.86
2023-02-11T11:29:46.318Z,56.17
2023-02-11T11:32:29.633Z,56.50
2023-02-11T11:35:09.842Z,56.20
2023-02-11T11:37:40.234Z,55.96
2023-02-11T11:40:11.850Z,56.14
2023-02-11T11:42:45.237Z,55.87
2023-02-11T11:45:30.442Z,56.48
2023-02-11T11:48:02.623Z,56.83
2023-02-11T11:50:40.272Z,56.36
2023-02-11T11:53:26.311Z,56.32
2023-02-11T11:56:19.787Z,55.91
2023-02-11T11:58:51.724Z,55.94
2023-02-11T12:01:41.556Z,55.43
2023-02-11T12:04:19.685Z,55.45
2023-02-11T12:06:54.647Z,56.04
2023-02-11T12:09:44.627Z,56.23
2023-02-11T12:12:48.748Z,56.12
2023-02-11T12:15:44.002Z,56.04
2023-02-11T12:18:38.476Z,56.18
2023-02-11T12:21:23.382Z,55.71
2023-02-11T12:24:21.448Z,55.52
2023-02-11T12:27:03.613Z,56.12
2023-02-11T12:30:13.470Z,56.17
2023-02-11T12:32:56.146Z,55.93
2023-02-11T12:35:36.635Z,55.63
2023-02-11T12:38:20.116Z,55.54
2023-02-11T12:41:02.413Z,56.29
2023-02-11T12:43:47.792Z,56.03
2023-02-11T12:46:43.443Z,55.75
2023-02-11T12:49:37.919Z,55.51
2023-02-11T12:52:32.084Z,54.94
2023-02-11T12:55:26.722Z,55.39
2023-02-11T12:58:13.188Z,55.71
2023-02-11T13:01:07.004Z,54.47
2023-02-11T13:04:02.187Z,54.24
2023-02-11T13:06:46.106Z,54.39
2023-02-11T13:09:32.814Z,54.16
2023-02-11T13:12:28.600Z,53.90
2023-02-11T13:15:03.997Z,53.97
2023-02-11T13:17:48.736Z,53.89
2023-02-11T13:20:41.430Z,54.39
2023-02-11T13:23:46.476Z,54.80
2023-02-11T13:26:28.408Z,55.29
2023-02-11T13:29:41.462Z,55.53
2023-02-11T13:32:16.088Z,55.44
2023-02-11T13:34:45.368Z,55.36
2023-02-11T13:37:36.410Z,55.29
2023-02-11T13:40:24.388Z,55.22
2023-02-11T13:42:59.264Z,55.10
2023-02-11T13:48:55.361Z,54.66
2023-02-11T13:51:58.289Z,54.94
2023-02-11T13:54:32.411Z,54.87
2023-02-11T13:57:23.067Z,54.82
2023-02-11T14:00:00.815Z,54.64
2023-02-11T14:02:55.600Z,54.31
2023-02-11T14:05:43.001Z,54.56
2023-02-11T14:08:37.558Z,54.76
2023-02-11T14:11:42.408Z,54.59
2023-02-11T14:14:29.143Z,54.51
2023-02-11T14:17:03.647Z,54.44
2023-02-11T14:19:46.581Z,54.62
2023-02-11T14:22:44.784Z,54.92
2023-02-11T14:25:25.617Z,55.15
2023-02-11T14:28:00.265Z,54.99
2023-02-11T14:30:39.545Z,55.18
2023-02-11T14:33:23.514Z,55.34
2023-02-11T14:36:01.260Z,55.48
2023-02-11T14:38:44.924Z,55.40
2023-02-11T14:41:33.309Z,55.52
2023-02-11T14:44:07.191Z,55.53
2023-02-11T14:46:36.904Z,55.76
2023-02-11T14:49:06.482Z,55.94
2023-02-11T14:54:51.657Z,57.18
2023-02-11T14:57:22.360Z,56.80
2023-02-11T15:00:02.769Z,56.86
2023-02-11T15:02:38.951Z,57.56
2023-02-11T15:05:16.621Z,57.66
2023-02-11T15:07:52.434Z,57.93
2023-02-11T15:10:35.675Z,57.95
2023-02-11T15:13:05.241Z,58.42
2023-02-11T15:15:44.309Z,58.82
2023-02-11T15:18:29.197Z,58.95
2023-02-11T15:21:03.408Z,59.53
2023-02-11T15:23:32.827Z,59.91
2023-02-11T15:29:41.866Z,59.40
2023-02-11T15:32:17.339Z,59.37
2023-02-11T15:34:50.957Z,59.48
2023-02-11T15:37:29.907Z,59.99
2023-02-11T15:40:23.104Z,60.57
2023-02-11T15:43:04.528Z,60.41
2023-02-11T15:45:43.544Z,60.34
2023-02-11T15:48:17.813Z,60.80
2023-02-11T15:50:55.803Z,61.20
2023-02-11T15:53:42.506Z,60.97
2023-02-11T15:56:21.086Z,62.53
2023-02-11T15:58:52.616Z,62.76
2023-02-11T16:04:58.300Z,63.24
2023-02-11T16:07:50.021Z,63.39
2023-02-11T16:13:47.497Z,63.64
2023-02-11T16:16:24.709Z,64.22
2023-02-11T16:19:05.431Z,64.72
2023-02-11T16:21:45.517Z,65.01
2023-02-11T16:24:25.158Z,65.47
2023-02-11T16:27:07.247Z,65.45
2023-02-11T16:29:41.966Z,65.87
2023-02-11T16:32:25.306Z,66.01
2023-02-11T16:35:02.954Z,65.99
2023-02-11T16:37:37.960Z,66.15
2023-02-11T16:40:12.094Z,66.10
2023-02-11T16:42:41.658Z,66.25
2023-02-11T16:45:15.434Z,66.66
2023-02-11T16:47:44.207Z,66.42
2023-02-11T16:50:24.459Z,66.24
2023-02-11T16:52:59.707Z,66.26
2023-02-11T16:55:32.623Z,66.35
2023-02-11T16:58:06.705Z,66.53
2023-02-11T17:00:41.161Z,66.91
2023-02-11T17:03:18.425Z,67.08
2023-02-11T17:05:55.417Z,66.90
2023-02-11T17:08:30.302Z,67.15
2023-02-11T17:11:00.363Z,66.96
2023-02-11T17:13:39.772Z,67.86
2023-02-11T17:16:28.321Z,67.60
2023-02-11T17:18:57.634Z,67.59
2023-02-11T17:21:29.941Z,67.68
2023-02-11T17:24:02.109Z,67.33
2023-02-11T17:26:37.107Z,67.21
2023-02-11T17:29:09.780Z,68.00
2023-02-11T17:31:45.431Z,68.52
2023-02-11T17:34:20.227Z,68.60
2023-02-11T17:36:49.029Z,68.01
2023-02-11T17:39:22.773Z,68.10
2023-02-11T17:41:51.676Z,68.44
2023-02-11T17:44:26.660Z,67.98
2023-02-11T17:46:56.360Z,67.89
2023-02-11T17:49:30.733Z,68.34
2023-02-11T17:52:06.703Z,68.60
2023-02-11T17:54:41.634Z,69.07
2023-02-11T17:57:13.260Z,69.67
2023-02-11T17:59:41.940Z,70.22
2023-02-11T18:02:15.567Z,69.99
2023-02-11T18:04:47.116Z,69.88
2023-02-11T18:07:15.872Z,69.99
2023-02-11T18:09:46.938Z,69.80
2023-02-11T18:12:18.589Z,69.41
2023-02-11T18:14:47.729Z,69.61
2023-02-11T18:17:23.554Z,69.99
2023-02-11T18:19:59.256Z,69.11
2023-02-11T18:22:36.774Z,68.65
2023-02-11T18:25:14.875Z,68.56
2023-02-11T18:27:43.647Z,68.51
2023-02-11T18:30:24.491Z,68.34
2023-02-11T18:32:56.722Z,67.74
2023-02-11T18:35:28.002Z,67.15
2023-02-11T18:38:07.101Z,67.06
2023-02-11T18:40:47.729Z,66.78
2023-02-11T18:43:17.202Z,66.65
2023-02-11T18:45:47.536Z,66.86
2023-02-11T18:48:18.029Z,66.86
2023-02-11T18:50:46.969Z,66.90
2023-02-11T18:56:43.338Z,66.93
2023-02-11T18:59:19.885Z,67.02
2023-02-11T19:01:53.435Z,67.03
2023-02-11T19:04:27.383Z,67.37
2023-02-11T19:07:03.394Z,68.23
2023-02-11T19:09:34.343Z,68.13
2023-02-11T19:12:04.905Z,67.71
2023-02-11T19:14:40.513Z,67.74
2023-02-11T19:17:31.613Z,68.01
2023-02-11T19:20:00.290Z,68.06
2023-02-11T19:22:34.045Z,68.31
2023-02-11T19:25:12.013Z,68.34
2023-02-11T19:27:43.505Z,69.23
2023-02-11T19:30:19.792Z,68.82
2023-02-11T19:32:53.422Z,68.49
2023-02-11T19:35:36.633Z,68.74
2023-02-11T19:38:10.804Z,68.41
2023-02-11T19:40:42.829Z,68.53
2023-02-11T19:43:15.290Z,68.24
2023-02-11T19:45:44.177Z,68.27
2023-02-11T19:48:16.189Z,68.68
2023-02-11T19:50:50.152Z,68.47
2023-02-11T19:53:25.036Z,68.75
2023-02-11T19:55:53.947Z,68.83
2023-02-11T19:58:25.713Z,69.11
2023-02-11T20:00:55.855Z,68.86
2023-02-11T20:03:27.509Z,69.16
2023-02-11T20:05:56.124Z,68.91
2023-02-11T20:08:30.292Z,69.19
2023-02-11T20:11:12.085Z,69.17
2023-02-11T20:13:45.806Z,69.61
2023-02-11T20:16:36.863Z,70.37
2023-02-11T20:19:21.717Z,70.24
2023-02-11T20:22:09.098Z,69.81
2023-02-11T20:24:41.432Z,69.62
2023-02-11T20:27:11.762Z,69.50
2023-02-11T20:29:42.536Z,69.87
2023-02-11T20:32:11.308Z,69.70
2023-02-11T20:34:40.125Z,69.77
2023-02-11T20:37:10.115Z,70.13
2023-02-11T20:39:41.159Z,70.04
2023-02-11T20:42:22.070Z,70.82
2023-02-11T20:44:56.951Z,70.50
2023-02-11T20:47:25.681Z,70.83
2023-02-11T20:49:55.894Z,70.32
2023-02-11T20:52:24.447Z,70.82
2023-02-11T20:54:56.018Z,70.89
2023-02-11T20:57:27.503Z,71.20
2023-02-11T21:00:05.392Z,70.79
2023-02-11T21:02:39.506Z,70.92
2023-02-11T21:05:13.576Z,71.01
2023-02-11T21:07:45.501Z,71.67
2023-02-11T21:10:14.317Z,72.30
2023-02-11T21:12:42.878Z,71.73
2023-02-11T21:15:13.636Z,72.25
2023-02-11T21:17:42.302Z,72.54
2023-02-11T21:20:11.359Z,72.69
2023-02-11T21:22:39.980Z,72.75
2023-02-11T21:25:08.740Z,72.22
2023-02-11T21:27:43.346Z,72.14
2023-02-11T21:30:13.335Z,72.47
2023-02-11T21:32:42.064Z,71.85
2023-02-11T21:35:10.767Z,71.11
2023-02-11T21:37:39.285Z,71.76
2023-02-11T21:40:08.698Z,72.05
2023-02-11T21:42:37.381Z,72.36
2023-02-11T21:45:07.125Z,72.87
2023-02-11T21:47:35.869Z,72.27
2023-02-11T21:50:04.608Z,71.81
2023-02-11T21:52:33.454Z,71.66
2023-02-11T21:55:01.933Z,72.08
2023-02-11T21:57:31.158Z,71.89
2023-02-11T21:59:59.666Z,72.22
2023-02-11T22:02:28.317Z,72.30
2023-02-11T22:04:59.393Z,71.48
2023-02-11T22:07:28.320Z,71.20
2023-02-11T22:09:57.022Z,71.10
2023-02-11T22:12:28.197Z,70.85
2023-02-11T22:14:57.556Z,70.75
2023-02-11T22:17:28.411Z,70.75
2023-02-11T22:19:57.505Z,70.59
2023-02-11T22:22:26.506Z,70.76
2023-02-11T22:24:55.561Z,70.98
2023-02-11T22:27:24.102Z,70.97
2023-02-11T22:29:53.227Z,70.77
2023-02-11T22:32:23.706Z,70.56
2023-02-11T22:34:53.545Z,70.38
2023-02-11T22:37:25.113Z,70.35
2023-02-11T22:39:53.673Z,70.58
2023-02-11T22:42:22.374Z,71.05
2023-02-11T22:44:51.023Z,70.96
2023-02-11T22:47:19.607Z,71.38
2023-02-11T22:49:48.178Z,72.04
2023-02-11T22:52:16.977Z,71.75
2023-02-11T22:54:45.672Z,71.57
2023-02-11T22:57:14.148Z,71.35
2023-02-11T22:59:42.674Z,71.25
2023-02-11T23:02:11.354Z,71.13
2023-02-11T23:04:48.366Z,71.03
2023-02-11T23:07:19.405Z,71.18
2023-02-11T23:09:47.997Z,70.91
2023-02-11T23:12:16.627Z,70.79
2023-02-11T23:14:45.921Z,70.71
2023-02-11T23:17:19.730Z,71.13
2023-02-11T23:19:48.283Z,71.19
2023-02-11T23:22:16.912Z,71.25
2023-02-11T23:24:45.435Z,71.22
2023-02-11T23:27:13.996Z,71.76
2023-02-11T23:29:45.561Z,71.77
2023-02-11T23:32:19.469Z,71.54
2023-02-11T23:34:48.118Z,71.34
2023-02-11T23:37:16.761Z,71.41
2023-02-11T23:39:45.261Z,72.31
2023-02-11T23:42:16.839Z,72.47
2023-02-11T23:44:45.484Z,72.51
2023-02-11T23:47:18.677Z,73.35
2023-02-11T23:49:47.266Z,73.62
2023-02-11T23:52:17.918Z,73.13
2023-02-11T23:54:48.377Z,73.86
2023-02-11T23:57:16.924Z,73.73
2023-02-11T23:59:49.145Z,74.10
